Wallace, Nebraska
Current Conditions -  °F | °C
As of 12:53 PM on Thursday 30 Oct 2014 (Local Time) from KLBF Reporting Station
Clear Clear  
Wind Chill: 63°   Ceiling: Unl
Heat Index: 63°   Visibility: 10mi
Dew Point: 31°   Wind: 21mph
Humidity: 30%   Direction: 330°NNW
Pressure: 30.26"   Gusts: 28mph
Location:  40.84°N, 101.16°W
Report Text: KLBF 301753Z AUTO 33018G24KT 10SM CLR 17/M01 A3026 RMK AO2 PK WND 33028/1741 SLP244 T01721006 10172 21011 50000
Loading
Personal Weather Stations






























Interactive Weather Map
Tropical Storm Tracking
New forecast layout! Learn more

10-Day Weather Forecast

Advertisements
Track Severe Weather on mobile